Time;durP1;ratioP1;P1;durP2;ratioP2;P2;SDS_P1;SDS_P2;PMS_P1;PMS_P2;Temp;Humidity;BMP_temperature;BMP_pressure;BME280_temperature;BME280_humidity;BME280_pressure;Samples;Min_cycle;Max_cycle;Signal;HPM_P1;HPM_P2
2024/03/14 00:00:05;;;;;;;30.50;13.80;;;7.80;99.90;;;;;;5023648;28;20208;-57
2024/03/14 00:02:30;;;;;;;24.10;12.83;;;7.80;99.90;;;;;;5021395;28;20463;-57
2024/03/14 00:04:59;;;;;;;29.10;13.60;;;7.80;99.90;;;;;;5019013;28;20439;-60
2024/03/14 00:07:24;;;;;;;30.87;14.17;;;7.80;99.90;;;;;;5017799;28;20235;-55
2024/03/14 00:09:50;;;;;;;32.00;13.93;;;7.80;99.90;;;;;;5013608;28;20790;-55
2024/03/14 00:12:16;;;;;;;25.50;12.57;;;7.80;99.90;;;;;;5021096;28;20263;-56
2024/03/14 00:14:49;;;;;;;26.83;14.10;;;7.80;99.90;;;;;;5018233;28;20319;-55
2024/03/14 00:17:18;;;;;;;29.97;12.60;;;7.80;99.90;;;;;;5020349;28;20434;-57
2024/03/14 00:19:44;;;;;;;28.40;14.10;;;7.80;99.90;;;;;;5018761;28;20589;-57
2024/03/14 00:22:10;;;;;;;22.57;12.20;;;7.80;99.90;;;;;;5022815;28;20552;-58
2024/03/14 00:24:37;;;;;;;30.60;13.23;;;7.80;99.90;;;;;;5016310;28;20530;-56
2024/03/14 00:27:03;;;;;;;24.50;12.87;;;7.80;99.90;;;;;;5025356;28;20214;-56
2024/03/14 00:29:30;;;;;;;26.53;12.50;;;7.80;99.90;;;;;;5022251;28;20434;-60
2024/03/14 00:31:56;;;;;;;22.00;11.60;;;7.80;99.90;;;;;;5021135;28;20418;-56
2024/03/14 00:34:22;;;;;;;25.20;11.67;;;7.80;99.90;;;;;;5022290;28;20425;-58
2024/03/14 00:36:48;;;;;;;27.80;11.93;;;7.80;99.90;;;;;;5022569;28;20581;-55
2024/03/14 00:39:15;;;;;;;33.17;12.70;;;7.80;99.90;;;;;;5020371;28;20231;-56
2024/03/14 00:41:40;;;;;;;25.17;12.27;;;7.70;99.90;;;;;;5014025;28;20447;-56
2024/03/14 00:44:06;;;;;;;25.50;12.77;;;7.70;99.90;;;;;;5018668;28;20508;-57
2024/03/14 00:46:34;;;;;;;28.10;12.63;;;7.70;99.90;;;;;;5020382;28;20191;-56
2024/03/14 00:49:00;;;;;;;25.20;11.40;;;7.70;99.90;;;;;;5025988;28;20205;-58
2024/03/14 00:51:25;;;;;;;26.90;12.40;;;7.70;99.90;;;;;;5006822;28;20447;-56
2024/03/14 00:53:53;;;;;;;23.57;11.20;;;7.70;99.90;;;;;;5019366;28;20908;-59
2024/03/14 00:56:20;;;;;;;27.33;11.53;;;7.70;99.90;;;;;;5019117;28;20721;-59
2024/03/14 00:58:47;;;;;;;21.20;11.43;;;7.70;99.90;;;;;;5015999;28;20435;-57
2024/03/14 01:01:13;;;;;;;21.30;10.73;;;7.80;99.90;;;;;;5019766;28;20549;-56
2024/03/14 01:03:42;;;;;;;23.10;11.50;;;7.80;99.90;;;;;;5013865;28;20407;-56
2024/03/14 01:06:11;;;;;;;23.10;11.00;;;7.80;99.90;;;;;;5014660;28;20426;-59
2024/03/14 01:08:38;;;;;;;20.50;10.07;;;7.80;99.90;;;;;;5020245;28;20549;-56
2024/03/14 01:11:04;;;;;;;17.63;9.10;;;7.70;99.90;;;;;;5024981;28;20424;-57
2024/03/14 01:13:30;;;;;;;13.37;8.47;;;7.80;99.90;;;;;;5018625;28;20470;-60
2024/03/14 01:15:56;;;;;;;14.87;8.03;;;7.80;99.90;;;;;;5019528;28;20499;-56
2024/03/14 01:18:22;;;;;;;13.73;8.23;;;7.70;99.90;;;;;;5021592;28;20172;-56
2024/03/14 01:20:48;;;;;;;19.07;9.20;;;7.70;99.90;;;;;;5019068;28;20204;-56
2024/03/14 01:23:14;;;;;;;15.47;8.07;;;7.70;99.90;;;;;;5017361;28;20180;-59
2024/03/14 01:25:40;;;;;;;13.80;7.50;;;7.70;99.90;;;;;;5019440;28;20425;-55
2024/03/14 01:28:07;;;;;;;17.00;8.70;;;7.70;99.90;;;;;;5017614;28;20191;-60
2024/03/14 01:30:33;;;;;;;17.53;8.53;;;7.70;99.90;;;;;;5015233;28;20462;-58
2024/03/14 01:32:59;;;;;;;16.27;8.87;;;7.70;99.90;;;;;;5021753;28;20791;-57
2024/03/14 01:35:24;;;;;;;17.30;9.37;;;7.70;99.90;;;;;;5020616;28;20445;-59
2024/03/14 01:37:50;;;;;;;17.23;9.03;;;7.70;99.90;;;;;;5023864;28;20570;-55
2024/03/14 01:40:16;;;;;;;17.50;9.03;;;7.70;99.90;;;;;;5022841;28;20195;-57
2024/03/14 01:42:45;;;;;;;16.10;7.93;;;7.70;99.90;;;;;;5020488;28;20435;-56
2024/03/14 01:45:14;;;;;;;14.63;7.90;;;7.70;99.90;;;;;;5022311;28;20681;-57
2024/03/14 01:47:42;;;;;;;14.33;8.10;;;7.70;99.90;;;;;;5014003;28;20499;-58
2024/03/14 01:50:08;;;;;;;16.90;8.43;;;7.70;99.90;;;;;;5016680;28;20510;-56
2024/03/14 01:52:34;;;;;;;15.70;9.03;;;7.70;99.90;;;;;;5018239;28;20538;-56
2024/03/14 01:55:02;;;;;;;16.20;8.60;;;7.70;99.90;;;;;;5023278;28;20422;-56
2024/03/14 01:57:29;;;;;;;16.20;9.30;;;7.70;99.90;;;;;;5018886;28;20419;-53
2024/03/14 01:59:58;;;;;;;15.10;8.50;;;7.70;99.90;;;;;;5019790;28;20859;-59
2024/03/14 02:02:24;;;;;;;17.43;8.70;;;7.70;99.90;;;;;;5016744;28;20442;-58
2024/03/14 02:05:05;;;;;;;15.80;8.67;;;7.60;99.90;;;;;;5018221;28;20423;-58
2024/03/14 02:07:37;;;;;;;16.23;8.27;;;7.70;99.90;;;;;;5016545;28;20524;-56
2024/03/14 02:10:04;;;;;;;17.60;9.90;;;7.70;99.90;;;;;;5025058;28;20568;-56
2024/03/14 02:12:29;;;;;;;18.70;9.40;;;7.70;99.90;;;;;;5019682;28;20504;-57
2024/03/14 02:14:55;;;;;;;16.93;9.50;;;7.70;99.90;;;;;;5019065;28;20440;-58
2024/03/14 02:17:21;;;;;;;19.10;10.07;;;7.70;99.90;;;;;;5017501;28;20259;-56
2024/03/14 02:19:46;;;;;;;21.40;10.80;;;7.60;99.90;;;;;;5020427;28;20640;-57
2024/03/14 02:22:21;;;;;;;17.50;8.53;;;7.60;99.90;;;;;;5012327;28;20184;-57
2024/03/14 02:24:47;;;;;;;19.07;9.50;;;7.60;99.90;;;;;;5018420;28;20172;-55
2024/03/14 02:27:13;;;;;;;21.37;9.40;;;7.60;99.90;;;;;;5015755;28;20462;-56
2024/03/14 02:29:40;;;;;;;22.23;10.90;;;7.60;99.90;;;;;;5017006;28;20192;-61
2024/03/14 02:32:06;;;;;;;21.07;10.10;;;7.60;99.90;;;;;;5019671;28;20427;-57
2024/03/14 02:34:31;;;;;;;22.77;10.90;;;7.60;99.90;;;;;;5014321;28;20448;-56
2024/03/14 02:36:57;;;;;;;20.87;9.80;;;7.60;99.90;;;;;;5015675;28;20271;-58
2024/03/14 02:39:22;;;;;;;20.37;10.17;;;7.60;99.90;;;;;;5016140;28;20208;-57
2024/03/14 02:41:50;;;;;;;22.13;9.70;;;7.60;99.90;;;;;;5019996;28;20204;-61
2024/03/14 02:44:18;;;;;;;14.60;7.70;;;7.60;99.90;;;;;;5019584;28;20573;-55
2024/03/14 02:46:45;;;;;;;16.10;8.63;;;7.60;99.90;;;;;;5016984;28;20427;-56
2024/03/14 02:49:13;;;;;;;18.20;8.97;;;7.60;99.90;;;;;;5020108;28;20847;-57
2024/03/14 02:51:39;;;;;;;17.80;9.53;;;7.60;99.90;;;;;;5013076;28;20795;-59
2024/03/14 02:54:05;;;;;;;14.10;8.60;;;7.50;99.90;;;;;;5016751;28;20446;-62
2024/03/14 02:56:34;;;;;;;20.33;9.57;;;7.60;99.90;;;;;;5011645;28;20554;-56
2024/03/14 02:59:00;;;;;;;18.50;9.33;;;7.60;99.90;;;;;;5017510;28;20196;-56
2024/03/14 03:01:26;;;;;;;21.60;9.97;;;7.60;99.90;;;;;;5013842;28;20775;-56
2024/03/14 03:03:55;;;;;;;19.57;9.13;;;7.60;99.90;;;;;;5016837;28;20442;-57
2024/03/14 03:06:21;;;;;;;19.00;9.93;;;7.60;99.90;;;;;;5015978;28;20424;-57
2024/03/14 03:08:47;;;;;;;19.63;8.83;;;7.60;99.90;;;;;;5018129;28;20883;-57
2024/03/14 03:11:12;;;;;;;16.30;7.83;;;7.60;99.90;;;;;;5017891;28;20184;-57
2024/03/14 03:13:39;;;;;;;15.83;8.37;;;7.50;99.90;;;;;;5016351;28;20989;-56
2024/03/14 03:16:05;;;;;;;14.97;7.73;;;7.50;99.90;;;;;;5023555;28;20203;-61
2024/03/14 03:18:33;;;;;;;14.80;7.43;;;7.50;99.90;;;;;;5012420;28;20466;-56
2024/03/14 03:20:59;;;;;;;15.47;8.07;;;7.50;99.90;;;;;;5021914;28;20194;-55
2024/03/14 03:23:25;;;;;;;14.57;8.30;;;7.50;99.90;;;;;;5017907;28;20523;-55
2024/03/14 03:25:50;;;;;;;15.07;7.23;;;7.50;99.90;;;;;;5018608;28;20777;-57
2024/03/14 03:28:16;;;;;;;15.03;7.23;;;7.50;99.90;;;;;;5014548;28;20226;-56
2024/03/14 03:30:43;;;;;;;18.33;8.50;;;7.50;99.90;;;;;;5019926;28;20686;-58
2024/03/14 03:33:11;;;;;;;22.50;8.33;;;7.50;99.90;;;;;;5020140;28;20175;-61
2024/03/14 03:35:38;;;;;;;16.60;8.00;;;7.50;99.90;;;;;;5016893;28;20952;-57
2024/03/14 03:38:06;;;;;;;13.37;7.63;;;7.50;99.90;;;;;;5018436;28;20441;-59
2024/03/14 03:40:35;;;;;;;18.80;8.87;;;7.50;99.90;;;;;;5019411;28;20435;-56
2024/03/14 03:43:02;;;;;;;16.93;8.60;;;7.50;99.90;;;;;;5017770;28;20449;-57
2024/03/14 03:45:28;;;;;;;16.83;9.17;;;7.50;99.90;;;;;;5017115;28;20493;-57
2024/03/14 03:47:55;;;;;;;18.17;9.37;;;7.50;99.90;;;;;;5018722;28;22526;-58
2024/03/14 03:50:20;;;;;;;19.73;9.60;;;7.50;99.90;;;;;;5015947;28;20439;-55
2024/03/14 03:52:46;;;;;;;21.97;10.00;;;7.50;99.90;;;;;;5019967;28;20419;-56
2024/03/14 03:55:16;;;;;;;17.53;9.10;;;7.50;99.90;;;;;;5016672;28;20185;-56
2024/03/14 03:57:43;;;;;;;20.63;9.33;;;7.50;99.90;;;;;;5010841;28;20435;-57
2024/03/14 04:00:32;;;;;;;23.13;10.40;;;7.50;99.90;;;;;;5017169;28;20453;-59
2024/03/14 04:02:55;;;;;;;19.50;9.80;;;7.50;99.90;;;;;;5013422;28;20411;-57
2024/03/14 04:05:21;;;;;;;15.23;8.50;;;7.50;99.90;;;;;;5024392;28;20424;-59
2024/03/14 04:07:50;;;;;;;16.90;8.93;;;7.50;99.90;;;;;;5021041;28;20517;-59
2024/03/14 04:10:16;;;;;;;20.47;9.53;;;7.50;99.90;;;;;;5018932;28;20613;-58
2024/03/14 04:12:42;;;;;;;16.63;10.03;;;7.50;99.90;;;;;;5019435;28;20452;-56
2024/03/14 04:15:10;;;;;;;19.30;9.10;;;7.50;99.90;;;;;;5019960;28;20439;-56
2024/03/14 04:17:36;;;;;;;19.33;9.47;;;7.50;99.90;;;;;;5012486;28;20423;-57
2024/03/14 04:20:10;;;;;;;16.57;9.20;;;7.50;99.90;;;;;;5013451;28;20226;-58
2024/03/14 04:22:37;;;;;;;23.00;10.90;;;7.50;99.90;;;;;;5016162;28;20933;-56
2024/03/14 04:25:10;;;;;;;20.60;10.10;;;7.50;99.90;;;;;;5021370;28;20418;-60
2024/03/14 04:27:36;;;;;;;19.73;9.33;;;7.50;99.90;;;;;;5018005;28;20465;-57
2024/03/14 04:30:03;;;;;;;18.40;9.63;;;7.50;99.90;;;;;;5027025;28;20434;-56
2024/03/14 04:32:28;;;;;;;16.30;8.97;;;7.50;99.90;;;;;;5016145;28;20440;-55
2024/03/14 04:34:54;;;;;;;21.73;10.70;;;7.50;99.90;;;;;;5021873;28;20880;-58
2024/03/14 04:37:20;;;;;;;23.03;10.13;;;7.50;99.90;;;;;;5018399;28;20192;-59
2024/03/14 04:39:47;;;;;;;21.47;9.90;;;7.50;99.90;;;;;;5023941;28;20207;-56
2024/03/14 04:42:12;;;;;;;22.03;10.70;;;7.50;99.90;;;;;;5023107;28;20791;-57
2024/03/14 04:44:39;;;;;;;19.90;10.30;;;7.50;99.90;;;;;;5023201;28;20964;-58
2024/03/14 04:47:10;;;;;;;19.80;10.03;;;7.50;99.90;;;;;;5015947;28;21070;-56
2024/03/14 04:49:36;;;;;;;18.60;9.53;;;7.50;99.90;;;;;;5018618;28;20443;-57
2024/03/14 04:52:04;;;;;;;21.90;10.30;;;7.50;99.90;;;;;;5017436;28;20442;-59
2024/03/14 04:54:32;;;;;;;20.60;9.87;;;7.50;99.90;;;;;;5016292;28;20410;-55
2024/03/14 04:57:01;;;;;;;26.30;11.20;;;7.50;99.90;;;;;;5014946;28;20500;-57
2024/03/14 04:59:27;;;;;;;17.23;8.50;;;7.50;99.90;;;;;;5018172;28;20450;-56
2024/03/14 05:01:53;;;;;;;17.23;9.10;;;7.50;99.90;;;;;;5018721;28;20443;-59
2024/03/14 05:04:19;;;;;;;19.80;9.40;;;7.50;99.90;;;;;;5016844;28;20925;-59
2024/03/14 05:06:46;;;;;;;19.73;8.77;;;7.50;99.90;;;;;;5015243;28;20435;-59
2024/03/14 05:09:11;;;;;;;16.17;8.80;;;7.50;99.90;;;;;;5013672;28;20235;-60
2024/03/14 05:11:37;;;;;;;23.40;10.00;;;7.40;99.90;;;;;;5020284;28;20464;-60
2024/03/14 05:14:06;;;;;;;23.80;10.73;;;7.40;99.90;;;;;;5016242;28;20271;-60
2024/03/14 05:16:32;;;;;;;24.87;10.27;;;7.40;99.90;;;;;;5014559;28;20178;-58
2024/03/14 05:18:57;;;;;;;24.87;11.50;;;7.40;99.90;;;;;;5018172;28;20447;-60
2024/03/14 05:21:23;;;;;;;21.20;9.13;;;7.40;99.90;;;;;;5016637;28;20605;-60
2024/03/14 05:23:50;;;;;;;18.93;8.43;;;7.40;99.90;;;;;;5022204;28;20195;-58
2024/03/14 05:26:16;;;;;;;17.63;8.77;;;7.40;99.90;;;;;;5015930;28;20416;-57
2024/03/14 05:28:43;;;;;;;21.70;9.10;;;7.40;99.90;;;;;;5023481;28;20208;-58
2024/03/14 05:31:09;;;;;;;21.33;9.60;;;7.40;99.90;;;;;;5009609;28;20435;-59
2024/03/14 05:33:35;;;;;;;18.93;9.30;;;7.40;99.90;;;;;;5016846;28;21587;-60
2024/03/14 05:36:01;;;;;;;19.27;9.03;;;7.40;99.90;;;;;;5019615;28;20941;-58
2024/03/14 05:38:27;;;;;;;20.47;10.67;;;7.40;99.90;;;;;;5012279;28;20204;-57
2024/03/14 05:40:52;;;;;;;21.30;9.90;;;7.40;99.90;;;;;;5019655;28;20490;-57
2024/03/14 05:43:19;;;;;;;21.73;10.10;;;7.30;99.90;;;;;;5019820;28;20205;-59
2024/03/14 05:45:46;;;;;;;23.90;11.00;;;7.30;99.90;;;;;;5016854;28;20247;-55
2024/03/14 05:48:11;;;;;;;34.87;12.70;;;7.30;99.90;;;;;;5014950;28;20458;-60
2024/03/14 05:50:37;;;;;;;34.50;14.20;;;7.30;99.90;;;;;;5013217;28;20799;-62
2024/03/14 05:53:04;;;;;;;31.87;13.30;;;7.30;99.90;;;;;;5015805;28;20198;-60
2024/03/14 05:55:30;;;;;;;28.90;12.30;;;7.30;99.90;;;;;;5015137;28;20198;-59
2024/03/14 05:57:56;;;;;;;28.27;11.40;;;7.30;99.90;;;;;;5017301;28;20458;-59
2024/03/14 06:00:21;;;;;;;22.10;10.93;;;7.30;99.90;;;;;;5017272;28;20274;-57
2024/03/14 06:02:47;;;;;;;23.93;10.70;;;7.30;99.90;;;;;;5015518;28;20530;-59
2024/03/14 06:05:15;;;;;;;39.00;13.00;;;7.30;99.90;;;;;;5013181;28;20238;-59
2024/03/14 06:07:41;;;;;;;19.50;9.77;;;7.30;99.90;;;;;;5015594;28;20495;-59
2024/03/14 06:10:07;;;;;;;23.20;10.57;;;7.30;99.90;;;;;;5018795;28;20952;-60
2024/03/14 06:12:33;;;;;;;22.97;11.07;;;7.30;99.90;;;;;;5021316;28;20895;-61
2024/03/14 06:14:59;;;;;;;28.07;9.93;;;7.30;99.90;;;;;;5020770;28;20425;-56
2024/03/14 06:17:27;;;;;;;22.83;10.47;;;7.30;99.90;;;;;;5013914;28;21336;-59
2024/03/14 06:19:53;;;;;;;22.40;10.40;;;7.30;99.90;;;;;;5018132;28;20290;-57
2024/03/14 06:22:18;;;;;;;25.57;11.07;;;7.30;99.90;;;;;;5018062;28;20419;-60
2024/03/14 06:24:44;;;;;;;29.47;12.83;;;7.30;99.90;;;;;;5018847;28;20207;-60
2024/03/14 06:27:13;;;;;;;32.47;14.20;;;7.30;99.90;;;;;;5054459;23;20721;-60
2024/03/14 06:29:39;;;;;;;27.40;12.83;;;7.30;99.90;;;;;;5046930;28;20194;-62
2024/03/14 06:32:04;;;;;;;24.83;12.07;;;7.30;99.90;;;;;;5045810;28;21249;-60
2024/03/14 06:34:33;;;;;;;28.67;12.70;;;7.30;99.90;;;;;;5047697;28;20179;-62
2024/03/14 06:36:59;;;;;;;35.90;14.23;;;7.30;99.90;;;;;;5047385;28;20453;-61
2024/03/14 06:39:28;;;;;;;33.43;14.87;;;7.30;99.90;;;;;;5044854;28;20507;-62
2024/03/14 06:41:54;;;;;;;36.60;14.60;;;7.30;99.90;;;;;;5046592;28;20229;-61
2024/03/14 06:44:19;;;;;;;38.70;15.43;;;7.40;99.90;;;;;;5044627;28;20432;-62
2024/03/14 06:46:45;;;;;;;31.20;13.57;;;7.40;99.90;;;;;;5046460;28;20429;-62
2024/03/14 06:49:13;;;;;;;25.83;10.97;;;7.40;99.90;;;;;;5047223;28;20652;-61
2024/03/14 06:51:41;;;;;;;32.87;13.33;;;7.40;99.90;;;;;;5042313;28;20203;-61
2024/03/14 06:54:07;;;;;;;30.47;13.57;;;7.40;99.90;;;;;;5046539;28;20495;-62
2024/03/14 06:56:35;;;;;;;28.93;12.77;;;7.40;99.90;;;;;;5046674;28;20434;-60
2024/03/14 06:59:04;;;;;;;31.20;12.80;;;7.40;99.90;;;;;;5045934;28;20163;-61
2024/03/14 07:01:31;;;;;;;33.17;13.93;;;7.40;99.90;;;;;;5045856;28;20453;-61
2024/03/14 07:04:01;;;;;;;30.50;13.80;;;7.40;99.90;;;;;;5045909;28;20424;-61
2024/03/14 07:06:28;;;;;;;34.70;13.70;;;7.40;99.90;;;;;;5046320;28;20421;-61
2024/03/14 07:08:57;;;;;;;26.77;13.20;;;7.40;99.90;;;;;;5046315;28;20500;-61
2024/03/14 07:11:26;;;;;;;37.20;15.63;;;7.40;99.90;;;;;;5044808;28;20564;-61
2024/03/14 07:13:56;;;;;;;38.40;14.30;;;7.40;99.90;;;;;;5045517;28;20961;-61
2024/03/14 07:16:22;;;;;;;33.43;14.90;;;7.40;99.90;;;;;;5044163;28;20417;-61
2024/03/14 07:18:50;;;;;;;32.90;15.13;;;7.40;99.90;;;;;;5043931;28;20490;-61
2024/03/14 07:21:19;;;;;;;24.40;10.03;;;7.50;99.90;;;;;;5044924;28;20281;-61
2024/03/14 07:23:48;;;;;;;16.73;8.53;;;7.50;99.90;;;;;;5045078;28;20932;-61
2024/03/14 07:26:23;;;;;;;13.97;7.77;;;7.50;99.90;;;;;;5046540;28;20412;-61
2024/03/14 07:28:50;;;;;;;12.90;7.03;;;7.40;99.90;;;;;;5025927;28;20995;-61
2024/03/14 07:31:16;;;;;;;17.30;6.17;;;7.40;99.90;;;;;;5046666;28;20842;-62
2024/03/14 07:33:45;;;;;;;17.10;8.43;;;7.40;99.90;;;;;;5046057;28;20443;-61
2024/03/14 07:36:17;;;;;;;13.93;6.60;;;7.30;99.90;;;;;;5044115;28;20215;-61
2024/03/14 07:38:49;;;;;;;10.43;6.60;;;7.30;99.90;;;;;;5043601;28;20445;-61
2024/03/14 07:41:22;;;;;;;11.00;6.07;;;7.30;99.90;;;;;;5045778;28;20469;-62
2024/03/14 07:43:48;;;;;;;9.90;5.60;;;7.30;99.90;;;;;;5044446;28;20509;-59
2024/03/14 07:46:14;;;;;;;9.67;4.87;;;7.30;99.90;;;;;;5046733;28;20973;-60
2024/03/14 07:48:43;;;;;;;8.27;5.40;;;7.30;99.90;;;;;;5045263;28;20528;-59
2024/03/14 07:51:09;;;;;;;10.80;6.70;;;7.40;99.90;;;;;;5020146;28;20453;-61
2024/03/14 07:53:34;;;;;;;8.17;4.80;;;7.40;99.90;;;;;;5042538;28;20784;-60
2024/03/14 07:56:00;;;;;;;10.20;6.27;;;7.40;99.90;;;;;;5047324;28;20668;-60
2024/03/14 07:58:26;;;;;;;9.43;5.50;;;7.50;99.90;;;;;;5047201;28;20191;-60
2024/03/14 08:00:53;;;;;;;9.83;6.07;;;7.50;99.90;;;;;;5050627;28;20427;-59
2024/03/14 08:03:19;;;;;;;7.57;5.10;;;7.60;99.90;;;;;;5042293;28;20445;-59
2024/03/14 08:05:50;;;;;;;9.80;5.17;;;7.60;99.90;;;;;;5049793;28;20417;-59
2024/03/14 08:08:17;;;;;;;8.93;5.10;;;7.60;99.90;;;;;;5047933;28;20456;-60
2024/03/14 08:10:46;;;;;;;7.63;4.90;;;7.70;99.90;;;;;;5045812;28;21820;-60
2024/03/14 08:13:17;;;;;;;7.27;4.00;;;7.80;99.90;;;;;;5049605;28;20500;-60
2024/03/14 08:15:52;;;;;;;8.50;4.80;;;7.90;99.90;;;;;;5048617;28;20457;-59
2024/03/14 08:18:21;;;;;;;6.60;4.13;;;7.90;99.90;;;;;;5049003;28;20516;-60
2024/03/14 08:20:47;;;;;;;7.30;4.47;;;8.00;99.90;;;;;;5048794;28;20468;-60
2024/03/14 08:23:16;;;;;;;9.50;4.70;;;8.00;99.90;;;;;;5042560;28;22337;-60
2024/03/14 08:25:42;;;;;;;10.97;4.90;;;8.10;99.90;;;;;;5044050;28;20438;-60
2024/03/14 08:28:08;;;;;;;6.90;4.33;;;8.10;99.90;;;;;;5040862;28;20472;-61
2024/03/14 08:30:39;;;;;;;8.60;5.10;;;8.10;99.90;;;;;;5042584;28;20439;-60
2024/03/14 08:33:05;;;;;;;7.93;4.60;;;8.20;99.90;;;;;;5048583;28;20179;-60
2024/03/14 08:35:32;;;;;;;7.80;5.13;;;8.20;99.90;;;;;;5047565;28;20429;-60
2024/03/14 08:37:58;;;;;;;8.77;5.13;;;8.20;99.90;;;;;;5045509;28;20584;-60
2024/03/14 08:40:23;;;;;;;10.40;4.97;;;8.20;99.90;;;;;;5021094;28;20513;-60
2024/03/14 08:42:49;;;;;;;8.57;5.27;;;8.20;99.90;;;;;;5047879;28;20262;-60
2024/03/14 08:45:15;;;;;;;10.03;4.60;;;8.30;99.90;;;;;;5047200;28;20650;-60
2024/03/14 08:47:42;;;;;;;8.07;5.47;;;8.30;99.90;;;;;;5043396;28;20752;-61
2024/03/14 08:50:09;;;;;;;9.57;5.70;;;8.30;99.90;;;;;;5040413;28;20434;-62
2024/03/14 08:52:36;;;;;;;11.50;6.17;;;8.30;99.90;;;;;;5046324;28;20527;-61
2024/03/14 08:55:23;;;;;;;11.63;6.00;;;8.40;99.90;;;;;;5049267;28;20425;-61
2024/03/14 08:57:51;;;;;;;12.43;6.90;;;8.50;99.90;;;;;;5027656;28;20461;-57
2024/03/14 09:00:21;;;;;;;15.33;6.50;;;8.60;99.90;;;;;;5044816;28;20922;-61
2024/03/14 09:02:49;;;;;;;9.47;5.70;;;8.70;99.90;;;;;;5043822;28;20441;-61
2024/03/14 09:05:15;;;;;;;9.43;6.13;;;8.80;99.90;;;;;;5046670;28;20434;-61
2024/03/14 09:07:45;;;;;;;13.47;6.20;;;8.80;99.90;;;;;;5048010;28;20875;-61
2024/03/14 09:10:23;;;;;;;12.10;6.00;;;8.90;99.90;;;;;;5047313;28;20425;-61
2024/03/14 09:12:49;;;;;;;8.40;5.23;;;9.00;99.90;;;;;;5046180;28;20864;-62
2024/03/14 09:15:15;;;;;;;11.50;7.07;;;9.10;99.90;;;;;;5042473;28;20464;-62
2024/03/14 09:17:41;;;;;;;9.20;6.00;;;9.10;99.90;;;;;;5028983;28;20429;-62
2024/03/14 09:20:14;;;;;;;11.27;6.27;;;9.20;99.90;;;;;;5047192;28;20533;-62
2024/03/14 09:22:43;;;;;;;9.47;5.00;;;9.30;99.90;;;;;;5047165;28;20684;-61
2024/03/14 09:25:10;;;;;;;10.07;4.70;;;9.30;99.90;;;;;;5047468;28;20936;-61
2024/03/14 09:27:36;;;;;;;12.60;7.00;;;9.40;99.90;;;;;;5043805;28;20826;-61
2024/03/14 09:30:08;;;;;;;11.47;7.10;;;9.40;99.90;;;;;;5048178;28;20434;-61
2024/03/14 09:32:37;;;;;;;11.40;6.50;;;9.40;99.90;;;;;;5048318;28;20436;-62
2024/03/14 09:35:07;;;;;;;11.03;6.40;;;9.50;99.90;;;;;;5031257;28;20418;-61
2024/03/14 09:37:36;;;;;;;10.63;6.67;;;9.50;99.90;;;;;;5047532;28;20448;-62
2024/03/14 09:40:05;;;;;;;10.40;6.40;;;9.50;99.90;;;;;;5047880;28;20413;-62
2024/03/14 09:42:32;;;;;;;11.33;6.40;;;9.50;99.90;;;;;;5047455;28;20959;-61
2024/03/14 09:45:01;;;;;;;9.90;6.13;;;9.50;99.90;;;;;;5046621;28;20429;-62
2024/03/14 09:47:39;;;;;;;9.40;5.63;;;9.50;99.90;;;;;;5046477;28;20557;-61
2024/03/14 09:50:10;;;;;;;12.17;6.63;;;9.60;99.90;;;;;;5048571;28;20401;-62
2024/03/14 09:52:36;;;;;;;10.80;6.23;;;9.60;99.90;;;;;;5045446;28;20864;-61
2024/03/14 09:55:09;;;;;;;9.03;5.97;;;9.70;99.90;;;;;;5046973;28;20496;-61
2024/03/14 09:57:36;;;;;;;10.63;6.20;;;9.80;99.90;;;;;;5046367;28;20195;-61
2024/03/14 10:00:03;;;;;;;9.60;5.70;;;9.90;99.90;;;;;;5031230;28;20550;-61
2024/03/14 10:02:30;;;;;;;8.63;5.20;;;9.90;99.90;;;;;;5044744;28;20421;-62
2024/03/14 10:04:56;;;;;;;11.73;6.37;;;9.90;99.90;;;;;;5044792;28;21009;-61
2024/03/14 10:07:21;;;;;;;10.43;6.10;;;10.00;99.90;;;;;;5047073;28;20470;-61
2024/03/14 10:09:48;;;;;;;11.20;5.87;;;10.10;99.90;;;;;;5045397;28;20182;-62
2024/03/14 10:12:14;;;;;;;9.37;5.80;;;10.10;99.90;;;;;;5029013;28;20179;-62
2024/03/14 10:14:43;;;;;;;9.30;5.47;;;10.20;99.90;;;;;;5023511;28;20402;-61
2024/03/14 10:17:10;;;;;;;8.23;6.00;;;10.30;99.90;;;;;;5038632;28;20464;-61
2024/03/14 10:19:36;;;;;;;15.73;5.70;;;10.40;99.90;;;;;;5044409;28;20471;-63
2024/03/14 10:22:04;;;;;;;10.13;5.47;;;10.40;99.90;;;;;;5042702;28;20431;-60
2024/03/14 10:24:36;;;;;;;10.17;5.77;;;10.40;99.90;;;;;;5024045;28;20438;-62
2024/03/14 10:27:04;;;;;;;11.67;6.50;;;10.40;99.90;;;;;;5043886;28;20519;-61
2024/03/14 10:29:33;;;;;;;24.33;6.30;;;10.30;99.90;;;;;;5046187;28;20414;-62
2024/03/14 10:31:59;;;;;;;10.10;6.00;;;10.40;99.90;;;;;;5047287;28;20440;-62
2024/03/14 10:34:25;;;;;;;13.23;6.13;;;10.50;99.90;;;;;;5046540;28;20426;-62
2024/03/14 10:36:54;;;;;;;11.83;6.27;;;10.90;99.90;;;;;;5035142;28;20546;-62
2024/03/14 10:39:23;;;;;;;10.57;5.80;;;11.30;99.90;;;;;;5037602;28;20669;-60
2024/03/14 10:41:49;;;;;;;10.63;6.00;;;11.60;99.90;;;;;;5045804;28;20442;-63
2024/03/14 10:44:18;;;;;;;9.60;5.50;;;11.60;99.90;;;;;;5043216;28;20421;-62
2024/03/14 10:46:53;;;;;;;12.77;6.97;;;11.70;99.90;;;;;;5039085;28;20456;-62
2024/03/14 10:49:19;;;;;;;9.30;5.57;;;11.70;99.90;;;;;;5029210;28;20429;-61
2024/03/14 10:51:49;;;;;;;10.30;6.70;;;11.70;99.90;;;;;;5047051;28;20414;-61
2024/03/14 10:54:17;;;;;;;9.63;6.50;;;11.70;99.90;;;;;;5044466;28;20429;-61
2024/03/14 10:56:45;;;;;;;13.23;7.13;;;11.60;99.90;;;;;;5043377;28;20460;-61
2024/03/14 10:59:16;;;;;;;10.47;6.13;;;11.60;99.90;;;;;;5044749;28;20948;-62
2024/03/14 11:01:50;;;;;;;16.80;5.97;;;11.50;99.90;;;;;;5042540;28;20429;-62
2024/03/14 11:04:17;;;;;;;10.80;6.10;;;11.40;99.90;;;;;;5037384;28;20437;-61
2024/03/14 11:06:47;;;;;;;9.60;6.03;;;11.50;99.90;;;;;;5043284;28;20549;-62
2024/03/14 11:09:17;;;;;;;9.00;6.00;;;11.80;99.90;;;;;;5045721;28;20500;-62
2024/03/14 11:11:48;;;;;;;10.97;6.27;;;11.80;99.90;;;;;;5041571;28;20502;-63
2024/03/14 11:14:15;;;;;;;9.70;5.37;;;11.80;99.90;;;;;;5024714;28;20441;-62
2024/03/14 11:16:46;;;;;;;8.93;6.13;;;11.80;99.90;;;;;;5038707;28;20480;-61
2024/03/14 11:19:17;;;;;;;10.70;6.63;;;11.80;99.90;;;;;;5041814;28;20521;-61
2024/03/14 11:21:44;;;;;;;11.10;6.47;;;11.90;99.90;;;;;;5044679;28;20397;-62
2024/03/14 11:24:13;;;;;;;8.87;6.40;;;12.00;99.90;;;;;;5046799;28;20413;-57
2024/03/14 11:26:45;;;;;;;11.03;6.00;;;12.40;99.90;;;;;;5038916;28;20993;-59
2024/03/14 11:29:17;;;;;;;11.03;6.90;;;12.80;99.90;;;;;;5046114;28;20414;-55
2024/03/14 11:31:47;;;;;;;15.00;7.60;;;13.00;99.90;;;;;;5050692;28;20493;-60
2024/03/14 11:34:17;;;;;;;13.07;6.80;;;13.40;99.90;;;;;;5050110;28;20416;-59
2024/03/14 11:36:44;;;;;;;11.40;6.30;;;13.70;99.90;;;;;;5028025;28;20457;-59
2024/03/14 11:39:15;;;;;;;10.00;6.50;;;14.00;99.90;;;;;;5044035;28;20498;-62
2024/03/14 11:41:41;;;;;;;11.87;6.30;;;14.20;99.90;;;;;;5049313;28;20989;-62
2024/03/14 11:44:20;;;;;;;9.30;6.27;;;14.50;99.90;;;;;;5030710;28;20483;-62
2024/03/14 11:46:51;;;;;;;9.00;6.20;;;14.60;99.90;;;;;;5044380;28;20444;-61
2024/03/14 11:49:17;;;;;;;11.30;6.70;;;14.80;99.90;;;;;;5043084;28;20509;-60
2024/03/14 11:51:47;;;;;;;7.80;5.63;;;14.80;95.60;;;;;;5047213;28;20505;-61
2024/03/14 11:54:14;;;;;;;12.70;6.53;;;14.80;93.40;;;;;;5046351;28;20194;-61
2024/03/14 11:56:42;;;;;;;13.37;5.57;;;14.60;97.50;;;;;;5041960;28;20797;-61
2024/03/14 11:59:11;;;;;;;17.17;6.53;;;14.50;99.90;;;;;;5043583;28;20437;-61
2024/03/14 12:01:39;;;;;;;12.23;5.90;;;14.60;99.90;;;;;;5044230;28;20417;-62
2024/03/14 12:04:13;;;;;;;8.67;5.70;;;14.40;97.00;;;;;;5044597;28;20413;-60
2024/03/14 12:06:40;;;;;;;8.70;5.20;;;14.50;99.90;;;;;;5041410;28;20524;-61
2024/03/14 12:09:06;;;;;;;8.00;5.67;;;14.70;99.90;;;;;;5045388;28;20449;-62
2024/03/14 12:11:33;;;;;;;10.07;6.30;;;14.80;95.20;;;;;;5046274;28;20918;-61
2024/03/14 12:13:59;;;;;;;11.37;6.07;;;14.90;96.20;;;;;;5047811;28;20198;-62
2024/03/14 12:16:25;;;;;;;8.70;5.20;;;15.00;98.10;;;;;;5044342;28;20923;-62
2024/03/14 12:18:53;;;;;;;6.77;4.97;;;15.20;92.60;;;;;;5044848;28;20432;-61
2024/03/14 12:21:19;;;;;;;8.70;5.20;;;15.30;92.60;;;;;;5044440;28;20183;-62
2024/03/14 12:23:56;;;;;;;7.60;4.93;;;15.40;91.80;;;;;;5044528;28;20461;-60
2024/03/14 12:26:22;;;;;;;9.17;5.50;;;15.50;90.80;;;;;;5045555;28;20183;-61
2024/03/14 12:28:49;;;;;;;8.60;5.33;;;15.60;92.90;;;;;;5046511;28;20449;-61
2024/03/14 12:31:17;;;;;;;10.73;4.90;;;15.80;93.10;;;;;;5049853;28;20418;-62
2024/03/14 12:33:44;;;;;;;6.53;5.07;;;16.00;85.10;;;;;;5043471;28;20429;-61
2024/03/14 12:36:16;;;;;;;7.83;4.90;;;16.10;86.40;;;;;;5048093;28;20405;-61
2024/03/14 12:38:48;;;;;;;7.03;4.93;;;16.10;85.00;;;;;;5046870;28;20445;-61
2024/03/14 12:41:14;;;;;;;6.87;5.20;;;16.00;84.30;;;;;;5044830;28;20421;-62
2024/03/14 12:43:40;;;;;;;6.20;4.33;;;16.00;90.30;;;;;;5049893;28;20429;-61